Time;durP1;ratioP1;P1;durP2;ratioP2;P2;SDS_P1;SDS_P2;PMS_P1;PMS_P2;Temp;Humidity;BMP_temperature;BMP_pressure;BME280_temperature;BME280_humidity;BME280_pressure;Samples;Min_cycle;Max_cycle;Signal;HPM_P1;HPM_P2
2024/01/14 00:01:29;;;;;;;26.13;16.47;;;;;;;-1.40;85.56;95504.66;4968394;28;20231;-87
2024/01/14 00:04:01;;;;;;;30.87;16.77;;;;;;;-1.43;85.71;95501.53;5012005;28;20676;-88
2024/01/14 00:06:45;;;;;;;31.20;17.47;;;;;;;-1.42;85.59;95488.00;5011940;28;20211;-87
2024/01/14 00:09:12;;;;;;;30.97;16.60;;;;;;;-1.33;85.49;95481.47;5011628;28;20266;-88
2024/01/14 00:11:49;;;;;;;30.80;17.10;;;;;;;-1.28;84.88;95480.25;5003368;28;20219;-88
2024/01/14 00:14:16;;;;;;;27.67;15.90;;;;;;;-1.34;84.68;95465.53;4992216;28;20199;-88
2024/01/14 00:16:47;;;;;;;31.00;17.60;;;;;;;-1.32;84.95;95467.94;4992338;28;20204;-88
2024/01/14 00:19:38;;;;;;;30.37;16.17;;;;;;;-1.23;84.91;95472.38;5009432;28;20227;-88
2024/01/14 00:22:29;;;;;;;28.80;16.47;;;;;;;-1.18;84.66;95461.03;5010959;28;20379;-87
2024/01/14 00:24:57;;;;;;;30.03;17.17;;;;;;;-1.12;84.14;95452.19;4996711;28;20230;-87
2024/01/14 00:27:28;;;;;;;31.27;17.30;;;;;;;-1.10;84.28;95447.84;4991949;28;20246;-87
2024/01/14 00:30:08;;;;;;;;;;;;;;;;;;;;;
2024/01/14 00:32:38;;;;;;;31.67;17.93;;;;;;;-1.05;83.67;95395.28;5006520;28;20691;-88
2024/01/14 00:35:05;;;;;;;28.70;17.03;;;;;;;-1.14;83.84;95386.63;5009883;28;20210;-88
2024/01/14 00:37:31;;;;;;;27.43;16.40;;;;;;;-1.23;83.56;95384.78;5011292;28;20219;-87
2024/01/14 00:40:07;;;;;;;26.77;16.10;;;;;;;-1.21;83.90;95387.19;5011737;28;20219;-87
2024/01/14 00:42:37;;;;;;;30.07;17.30;;;;;;;-1.30;84.08;95382.78;5011279;28;20265;-88
2024/01/14 00:45:05;;;;;;;26.60;16.13;;;;;;;-1.25;83.97;95380.75;5011359;28;20218;-87
2024/01/14 00:47:49;;;;;;;25.43;15.50;;;;;;;-1.38;84.21;95378.31;5011929;28;20269;-87
2024/01/14 00:50:30;;;;;;;27.27;15.80;;;;;;;-1.33;84.73;95393.91;5004967;28;20203;-87
2024/01/14 00:53:00;;;;;;;25.43;15.40;;;;;;;-1.29;84.56;95387.75;5011716;28;20310;-87
2024/01/14 00:55:27;;;;;;;26.90;16.13;;;;;;;-1.26;84.72;95385.00;5011377;28;20639;-88
2024/01/14 00:58:06;;;;;;;31.70;16.53;;;;;;;-1.23;84.65;95392.34;5010849;28;20649;-88
2024/01/14 01:00:40;;;;;;;30.83;17.17;;;;;;;-1.26;85.00;95394.28;5008487;28;20227;-87
2024/01/14 01:03:11;;;;;;;25.27;15.97;;;;;;;-1.29;84.89;95390.25;4992097;28;20280;-88
2024/01/14 01:05:42;;;;;;;30.67;16.97;;;;;;;-1.20;84.91;95371.94;4993614;28;20217;-88
2024/01/14 01:08:09;;;;;;;30.90;16.80;;;;;;;-1.25;84.89;95373.97;5008038;28;20254;-88
2024/01/14 01:10:37;;;;;;;30.93;17.17;;;;;;;-1.26;84.68;95369.84;5007689;28;20230;-88
2024/01/14 01:13:12;;;;;;;30.00;16.93;;;;;;;-1.26;84.79;95377.41;4991229;28;20214;-89
2024/01/14 01:15:45;;;;;;;26.90;15.50;;;;;;;-1.39;84.58;95364.06;4990997;28;20202;-88
2024/01/14 01:18:12;;;;;;;26.67;15.10;;;;;;;-1.40;84.98;95368.31;4992052;28;20307;-88
2024/01/14 01:20:51;;;;;;;;;;;;;;;;;;;;;
2024/01/14 01:23:29;;;;;;;28.97;17.07;;;;;;;-1.36;84.66;95373.97;5004273;28;20582;-87
2024/01/14 01:25:55;;;;;;;28.70;16.40;;;;;;;-1.37;84.99;95369.81;5010433;28;20302;-88
2024/01/14 01:28:25;;;;;;;27.63;16.43;;;;;;;-1.37;84.77;95364.78;5010808;28;20215;-88
2024/01/14 01:30:55;;;;;;;26.83;15.87;;;;;;;-1.31;84.81;95369.34;5010053;28;20194;-88
2024/01/14 01:33:30;;;;;;;29.87;16.53;;;;;;;-1.33;84.66;95366.13;5008361;28;20196;-88
2024/01/14 01:35:59;;;;;;;29.73;16.57;;;;;;;-1.34;84.09;95354.41;5010827;28;20234;-87
2024/01/14 01:38:40;;;;;;;32.37;20.87;;;;;;;-1.31;83.67;95348.34;5009170;28;20219;-88
2024/01/14 01:41:09;;;;;;;31.80;17.13;;;;;;;-1.32;83.75;95336.63;4999045;28;20231;-88
2024/01/14 01:43:39;;;;;;;32.90;17.07;;;;;;;-1.32;83.50;95324.00;4990393;28;20207;-88
2024/01/14 01:48:53;;;;;;;27.30;15.60;;;;;;;-1.49;83.55;95305.84;4979080;28;20237;-88
2024/01/14 01:51:21;;;;;;;24.30;15.27;;;;;;;-1.53;83.66;95314.53;5006724;28;20206;-88
2024/01/14 01:53:58;;;;;;;28.07;16.13;;;;;;;-1.59;83.95;95317.53;5009989;28;20237;-88
2024/01/14 01:56:32;;;;;;;27.60;15.33;;;;;;;-1.55;84.13;95328.22;5009563;28;20277;-88
2024/01/14 01:59:05;;;;;;;29.10;16.57;;;;;;;-1.54;84.03;95319.72;5010204;28;20246;-87
2024/01/14 02:01:33;;;;;;;29.63;16.80;;;;;;;-1.51;83.93;95317.75;5009186;28;20286;-87
2024/01/14 02:04:10;;;;;;;23.67;14.93;;;;;;;-1.51;84.04;95307.66;5010666;28;20281;-88
2024/01/14 02:07:04;;;;;;;31.57;16.07;;;;;;;-1.52;83.74;95306.06;5010339;28;20198;-89
2024/01/14 02:09:51;;;;;;;25.77;15.40;;;;;;;-1.54;83.81;95294.50;5006016;28;20826;-87
2024/01/14 02:12:24;;;;;;;27.43;15.67;;;;;;;-1.48;83.35;95286.44;5008350;28;20229;-88
2024/01/14 02:15:18;;;;;;;30.73;16.50;;;;;;;-1.47;83.37;95268.69;4996159;28;20196;-87
2024/01/14 02:17:57;;;;;;;26.93;15.07;;;;;;;-1.43;82.88;95259.16;4991693;28;20278;-89
2024/01/14 02:20:39;;;;;;;25.60;15.47;;;;;;;-1.43;82.63;95239.78;4994609;28;20272;-87
2024/01/14 02:23:42;;;;;;;25.77;15.30;;;;;;;-1.47;82.96;95243.44;4991736;28;20757;-88
2024/01/14 02:29:29;;;;;;;;;;;;;;;;;;;;;
2024/01/14 02:32:07;;;;;;;24.70;15.23;;;;;;;-1.65;83.36;95249.81;4991993;28;20573;-88
2024/01/14 02:34:39;;;;;;;22.60;13.80;;;;;;;-1.54;83.07;95249.06;4998617;28;20249;-87
2024/01/14 02:37:12;;;;;;;24.50;15.67;;;;;;;-1.49;82.48;95240.22;5009372;28;20202;-89
2024/01/14 02:39:42;;;;;;;28.73;17.37;;;;;;;-1.52;83.27;95244.66;5009053;28;20791;-88
2024/01/14 02:42:29;;;;;;;;;;;;;;;;;;;;;
2024/01/14 02:44:58;;;;;;;22.47;14.77;;;;;;;-1.54;82.61;95217.00;5007787;28;20673;-88
2024/01/14 02:47:32;;;;;;;25.27;14.93;;;;;;;-1.60;82.90;95221.72;5006586;28;20207;-88
2024/01/14 02:50:23;;;;;;;22.10;14.80;;;;;;;-1.64;83.15;95226.19;5007257;28;20668;-88
2024/01/14 02:53:19;;;;;;;25.83;15.80;;;;;;;-1.60;82.80;95229.28;4989572;28;20295;-88
2024/01/14 02:55:59;;;;;;;23.10;15.43;;;;;;;-1.65;83.19;95234.66;4997630;28;20190;-88
2024/01/14 02:58:28;;;;;;;23.70;15.17;;;;;;;-1.59;83.16;95246.06;5008229;28;20252;-88
2024/01/14 03:00:55;;;;;;;26.07;15.27;;;;;;;-1.69;83.74;95245.09;5001991;28;20311;-87
2024/01/14 03:03:45;;;;;;;25.93;16.30;;;;;;;-1.74;84.09;95245.44;5009711;28;20584;-87
2024/01/14 03:06:18;;;;;;;27.03;15.47;;;;;;;-1.76;83.94;95239.69;5009323;28;20191;-88
2024/01/14 03:08:55;;;;;;;28.40;15.87;;;;;;;-1.80;84.06;95246.69;5008715;28;20219;-88
2024/01/14 03:11:22;;;;;;;27.20;15.70;;;;;;;-1.73;84.19;95236.94;5005744;28;20584;-87
2024/01/14 03:13:59;;;;;;;28.00;16.27;;;;;;;-1.68;83.90;95239.94;5006222;28;21312;-87
2024/01/14 03:16:29;;;;;;;27.83;15.57;;;;;;;-1.68;83.79;95224.78;5004618;28;20202;-88
2024/01/14 03:19:06;;;;;;;25.50;15.27;;;;;;;-1.68;83.49;95216.41;5009176;28;20230;-88
2024/01/14 03:21:35;;;;;;;25.37;16.03;;;;;;;-1.75;83.82;95219.41;5004885;28;20229;-86
2024/01/14 03:24:08;;;;;;;25.53;15.70;;;;;;;-1.70;84.27;95231.66;4989715;28;20222;-86
2024/01/14 03:29:27;;;;;;;27.57;16.73;;;;;;;-1.75;84.17;95221.94;4988730;28;20325;-87
2024/01/14 03:31:56;;;;;;;26.17;15.73;;;;;;;-1.75;84.09;95219.41;5006543;28;20583;-88
2024/01/14 03:37:06;;;;;;;25.77;15.67;;;;;;;-1.80;84.07;95208.84;5008834;28;20207;-87
2024/01/14 03:39:40;;;;;;;26.67;15.37;;;;;;;-1.76;84.37;95206.91;5009213;28;20273;-87
2024/01/14 03:42:09;;;;;;;27.07;15.77;;;;;;;-1.71;83.81;95198.97;4997098;28;20317;-87
2024/01/14 03:44:39;;;;;;;25.87;15.23;;;;;;;-1.71;83.98;95204.03;5008945;28;20209;-87
2024/01/14 03:47:25;;;;;;;25.67;16.17;;;;;;;-1.65;83.45;95196.00;5008178;28;20919;-87
2024/01/14 03:49:54;;;;;;;27.07;16.13;;;;;;;-1.67;83.21;95183.50;5006868;28;20199;-87
2024/01/14 03:52:24;;;;;;;25.67;14.80;;;;;;;-1.68;83.05;95183.63;4989125;28;20218;-87
2024/01/14 03:54:57;;;;;;;28.67;15.93;;;;;;;-1.65;83.14;95193.50;5006885;28;20273;-87
2024/01/14 03:57:32;;;;;;;25.73;15.83;;;;;;;-1.63;83.28;95189.94;5008706;28;20202;-87
2024/01/14 04:00:08;;;;;;;25.87;16.37;;;;;;;-1.59;83.09;95183.75;5007744;28;20213;-87
2024/01/14 04:02:40;;;;;;;22.50;14.53;;;;;;;-1.64;83.28;95177.44;5008881;28;20229;-87
2024/01/14 04:05:11;;;;;;;30.93;16.97;;;;;;;-1.62;83.59;95195.78;5009319;28;20202;-87
2024/01/14 04:07:36;;;;;;;27.73;16.80;;;;;;;-1.72;83.86;95203.22;5012294;28;20227;-87
2024/01/14 04:10:06;;;;;;;26.60;16.67;;;;;;;-1.68;83.91;95212.19;5004652;28;20258;-87
2024/01/14 04:12:36;;;;;;;28.03;15.63;;;;;;;-1.66;83.92;95202.78;5010395;28;20210;-88
2024/01/14 04:15:04;;;;;;;28.80;16.93;;;;;;;-1.60;83.80;95196.50;5012517;28;20211;-87
2024/01/14 04:17:31;;;;;;;29.67;16.93;;;;;;;-1.62;83.87;95194.06;5012490;28;20640;-88
2024/01/14 04:20:06;;;;;;;28.70;16.93;;;;;;;-1.58;83.75;95203.03;5010992;28;20629;-87
2024/01/14 04:22:36;;;;;;;26.37;16.40;;;;;;;-1.62;84.00;95198.31;5010760;28;20230;-87
2024/01/14 04:25:02;;;;;;;25.13;15.73;;;;;;;-1.65;83.89;95193.50;5012519;28;20199;-87
2024/01/14 04:27:34;;;;;;;29.00;18.27;;;;;;;-1.63;84.21;95206.81;5011885;28;20300;-87
2024/01/14 04:30:07;;;;;;;37.20;21.07;;;;;;;-1.60;84.14;95199.00;5011789;28;20580;-87
2024/01/14 04:32:54;;;;;;;28.63;16.07;;;;;;;-1.59;83.99;95193.84;5011378;28;20576;-86
2024/01/14 04:35:23;;;;;;;27.50;16.00;;;;;;;-1.55;83.80;95186.88;5010636;28;20226;-87
2024/01/14 04:38:01;;;;;;;29.17;17.53;;;;;;;-1.57;83.74;95189.50;4997263;28;20250;-87
2024/01/14 04:40:28;;;;;;;30.53;17.23;;;;;;;-1.61;83.90;95184.78;5012170;28;20635;-87
2024/01/14 04:42:54;;;;;;;29.17;17.00;;;;;;;-1.55;83.91;95199.50;5011539;28;20229;-88
2024/01/14 04:45:38;;;;;;;28.67;17.13;;;;;;;-1.53;84.07;95190.84;5010771;28;20233;-87
2024/01/14 04:48:09;;;;;;;31.50;17.37;;;;;;;-1.47;83.47;95184.56;5011021;28;20230;-87
2024/01/14 04:50:39;;;;;;;26.50;16.17;;;;;;;-1.46;83.16;95186.97;5010553;28;20290;-87
2024/01/14 04:53:06;;;;;;;28.00;16.57;;;;;;;-1.46;83.11;95173.56;5009947;28;20203;-86
2024/01/14 04:55:35;;;;;;;28.27;17.17;;;;;;;-1.43;83.06;95178.38;5011018;28;20262;-87
2024/01/14 04:58:03;;;;;;;27.20;16.83;;;;;;;-1.45;83.03;95177.69;5010922;28;20219;-88
2024/01/14 05:00:35;;;;;;;30.87;16.60;;;;;;;-1.44;83.16;95187.66;5010604;28;20238;-87
2024/01/14 05:03:21;;;;;;;31.27;17.53;;;;;;;-1.49;83.45;95188.91;5010899;28;20219;-86
2024/01/14 05:05:56;;;;;;;28.33;17.10;;;;;;;-1.42;83.83;95202.72;4991237;28;20208;-87
2024/01/14 05:08:23;;;;;;;28.30;17.27;;;;;;;-1.36;83.87;95209.84;4998320;28;20635;-87
2024/01/14 05:10:54;;;;;;;27.83;16.77;;;;;;;-1.32;83.55;95200.28;5010166;28;20207;-87
2024/01/14 05:13:45;;;;;;;31.63;17.60;;;;;;;-1.28;83.16;95196.63;5010983;28;20198;-87
2024/01/14 05:16:15;;;;;;;31.17;18.03;;;;;;;-1.25;83.47;95186.31;4998446;28;20200;-86
2024/01/14 05:18:42;;;;;;;34.27;18.47;;;;;;;-1.27;83.37;95193.19;4990774;28;20258;-87
2024/01/14 05:21:17;;;;;;;29.33;17.00;;;;;;;-1.22;83.42;95196.97;4990774;28;20203;-86
2024/01/14 05:23:46;;;;;;;25.80;16.07;;;;;;;-1.21;83.64;95210.41;5001528;28;20293;-87
2024/01/14 05:26:25;;;;;;;30.17;17.10;;;;;;;-1.18;83.49;95200.91;5007618;28;20202;-87
2024/01/14 05:29:02;;;;;;;;;;;;;;;;;;;;;
2024/01/14 05:34:36;;;;;;;29.33;17.00;;;;;;;-1.27;84.35;95226.00;5002771;28;20210;-86
2024/01/14 05:37:17;;;;;;;30.43;17.83;;;;;;;-1.32;85.41;95241.50;5005670;28;20620;-87
2024/01/14 05:39:44;;;;;;;29.67;17.13;;;;;;;-1.34;85.54;95258.47;5009647;28;20203;-87
2024/01/14 05:42:43;;;;;;;26.50;16.37;;;;;;;-1.43;86.00;95264.22;5009678;28;20233;-86
2024/01/14 05:45:27;;;;;;;32.53;17.20;;;;;;;-1.49;86.38;95267.16;4956976;28;20218;-87
2024/01/14 05:48:03;;;;;;;27.60;15.83;;;;;;;-1.59;86.50;95268.75;4999947;28;20215;-87
2024/01/14 05:50:34;;;;;;;28.70;16.60;;;;;;;-1.49;86.18;95262.94;4989546;28;20199;-87
2024/01/14 05:53:03;;;;;;;25.40;16.17;;;;;;;-1.51;86.21;95269.81;4990901;28;20254;-87
2024/01/14 05:55:29;;;;;;;24.73;15.27;;;;;;;-1.45;86.12;95266.03;4996785;28;20227;-87
2024/01/14 05:57:58;;;;;;;27.23;16.10;;;;;;;-1.36;85.36;95251.97;5008363;28;20223;-87
2024/01/14 06:00:32;;;;;;;27.47;15.40;;;;;;;-1.35;85.15;95241.75;4990490;28;20212;-87
2024/01/14 06:03:10;;;;;;;26.27;15.63;;;;;;;-1.36;84.59;95225.00;4990512;28;20223;-88
2024/01/14 06:05:40;;;;;;;26.13;16.43;;;;;;;-1.46;84.97;95236.66;4997824;28;20506;-87
2024/01/14 06:08:06;;;;;;;27.43;15.60;;;;;;;-1.40;84.97;95241.28;5010482;28;20219;-87
2024/01/14 06:10:33;;;;;;;30.47;17.73;;;;;;;-1.36;85.04;95242.66;5010084;28;20252;-87
2024/01/14 06:13:01;;;;;;;25.17;16.07;;;;;;;-1.44;84.33;95230.59;5010289;28;20199;-87
2024/01/14 06:15:42;;;;;;;29.60;16.50;;;;;;;-1.56;84.00;95221.41;5009916;28;20195;-87
2024/01/14 06:18:19;;;;;;;28.53;15.83;;;;;;;-1.59;84.32;95233.44;5011048;28;20237;-87
2024/01/14 06:21:00;;;;;;;27.10;15.23;;;;;;;-1.53;84.28;95228.72;5011442;28;20210;-87
2024/01/14 06:23:30;;;;;;;27.33;15.37;;;;;;;-1.48;83.02;95214.06;5011360;28;20281;-87
2024/01/14 06:26:06;;;;;;;25.77;15.73;;;;;;;-1.41;82.79;95184.13;5011983;28;20245;-87
2024/01/14 06:28:50;;;;;;;24.97;15.90;;;;;;;-1.42;81.67;95155.53;5050184;22;20240;-86
2024/01/14 06:31:20;;;;;;;29.83;15.73;;;;;;;-1.50;81.50;95151.97;5078468;28;20220;-85
2024/01/14 06:34:15;;;;;;;25.87;15.47;;;;;;;-1.57;81.48;95156.69;5068882;28;20201;-86
2024/01/14 06:36:56;;;;;;;25.63;15.73;;;;;;;-1.51;81.45;95147.84;5086751;28;20189;-87
2024/01/14 06:39:36;;;;;;;24.63;13.87;;;;;;;-1.65;80.83;95116.06;5089080;28;20231;-87
2024/01/14 06:42:03;;;;;;;25.00;14.90;;;;;;;-1.75;81.16;95128.56;5088022;28;20216;-87
2024/01/14 06:47:37;;;;;;;23.37;14.67;;;;;;;-1.82;80.96;95126.59;5076995;28;20262;-88
2024/01/14 06:50:25;;;;;;;22.47;13.67;;;;;;;-1.92;80.01;95100.44;5086848;28;20193;-86
2024/01/14 06:53:10;;;;;;;22.17;13.13;;;;;;;-1.93;79.46;95069.38;5066846;28;20546;-87
2024/01/14 06:55:42;;;;;;;22.73;14.07;;;;;;;-1.87;79.56;95078.19;5059457;28;20193;-87
2024/01/14 06:58:15;;;;;;;25.77;14.60;;;;;;;-1.91;79.27;95072.56;5062067;28;20209;-88
2024/01/14 07:00:56;;;;;;;24.30;13.83;;;;;;;-1.85;78.99;95067.09;5060300;28;20234;-87
2024/01/14 07:03:32;;;;;;;23.33;14.80;;;;;;;-1.79;79.08;95059.06;5056617;28;20589;-87
2024/01/14 07:06:09;;;;;;;24.53;14.70;;;;;;;-1.82;78.42;95039.09;5060591;28;20188;-86
2024/01/14 07:08:49;;;;;;;23.40;13.97;;;;;;;-1.57;98.75;95425.94;5065620;28;20218;-87
2024/01/14 07:11:17;;;;;;;23.37;13.80;;;;;;;-1.53;85.29;95190.84;5060791;28;20709;-86
2024/01/14 07:13:44;;;;;;;25.83;14.87;;;;;;;-1.52;81.32;95068.78;5058148;28;20205;-85
2024/01/14 07:16:14;;;;;;;24.27;14.97;;;;;;;-1.54;79.80;95032.00;5054726;28;20560;-86
2024/01/14 07:18:54;;;;;;;23.17;14.77;;;;;;;-1.50;79.29;95024.03;5065497;28;20231;-86
2024/01/14 07:21:31;;;;;;;24.37;14.80;;;;;;;-1.54;79.35;95005.00;5048657;28;20208;-86
2024/01/14 07:24:11;;;;;;;25.00;15.20;;;;;;;-1.57;78.85;95007.78;5048729;28;20239;-86
2024/01/14 07:26:41;;;;;;;27.53;16.83;;;;;;;-1.58;78.53;94998.59;5051211;28;20250;-85
2024/01/14 07:29:32;;;;;;;30.40;16.37;;;;;;;-1.60;78.44;94995.41;5060859;28;20221;-85
2024/01/14 07:32:07;;;;;;;28.67;16.07;;;;;;;-1.73;78.36;94985.41;5069027;28;20204;-86
2024/01/14 07:34:38;;;;;;;27.93;16.73;;;;;;;-1.77;78.50;94999.19;5066818;28;20215;-86
2024/01/14 07:40:10;;;;;;;30.13;16.60;;;;;;;-1.62;78.86;95017.41;5029024;28;20212;-86
2024/01/14 07:45:29;;;;;;;32.67;17.13;;;;;;;-1.53;78.69;95010.84;5050889;28;20310;-87
2024/01/14 07:47:59;;;;;;;33.00;17.80;;;;;;;-1.61;78.94;95006.41;5052379;28;20622;-86
2024/01/14 07:56:16;;;;;;;33.47;18.00;;;;;;;-1.50;77.79;94987.91;5028596;28;20604;-86
2024/01/14 07:59:08;;;;;;;32.37;19.10;;;;;;;-1.46;77.75;94977.47;5052084;28;20270;-85
2024/01/14 08:02:05;;;;;;;30.80;18.13;;;;;;;-1.55;77.79;94973.13;5036941;28;20268;-86
2024/01/14 08:04:38;;;;;;;28.27;16.47;;;;;;;-1.61;77.73;94963.50;5056523;28;20189;-85
2024/01/14 08:09:53;;;;;;;26.07;16.07;;;;;;;-1.62;77.97;94968.66;5053640;28;20221;-86
2024/01/14 08:12:37;;;;;;;30.57;18.47;;;;;;;-1.56;78.01;94974.06;5071551;28;20230;-87
2024/01/14 08:15:11;;;;;;;27.93;15.83;;;;;;;-1.51;77.49;94966.91;5001579;28;20261;-87
2024/01/14 08:17:40;;;;;;;29.63;17.20;;;;;;;-1.42;77.37;94962.88;5062881;28;20201;-87
2024/01/14 08:20:25;;;;;;;29.70;16.27;;;;;;;-1.39;77.55;94962.66;5071926;28;20303;-86
2024/01/14 08:23:00;;;;;;;24.77;15.70;;;;;;;-1.46;77.14;94934.56;5071219;28;20227;-86
2024/01/14 08:28:48;;;;;;;25.77;16.00;;;;;;;-1.52;77.45;94956.94;5031413;28;20248;-87
2024/01/14 08:31:29;;;;;;;23.70;14.40;;;;;;;-1.47;77.15;94948.09;5054394;28;20197;-86
2024/01/14 08:34:04;;;;;;;23.97;14.97;;;;;;;-1.43;77.02;94941.88;5051769;28;20204;-86
2024/01/14 08:36:50;;;;;;;24.63;14.10;;;;;;;-1.55;76.96;94934.47;5069446;28;20665;-87
2024/01/14 08:39:21;;;;;;;23.17;13.47;;;;;;;-1.54;77.28;94936.09;5069786;28;20224;-87
2024/01/14 08:41:48;;;;;;;22.50;14.40;;;;;;;-1.49;77.31;94959.22;5066460;28;20216;-87
2024/01/14 08:47:45;;;;;;;22.93;13.93;;;;;;;-1.59;77.24;94943.19;5050462;28;20268;-87
2024/01/14 08:50:29;;;;;;;21.63;13.43;;;;;;;-1.47;77.22;94944.75;5069943;28;20232;-88
2024/01/14 08:53:20;;;;;;;24.67;14.73;;;;;;;-1.34;77.26;94945.41;5068847;28;20216;-88
2024/01/14 08:55:50;;;;;;;21.30;13.53;;;;;;;-1.31;77.01;94924.16;5067283;28;20251;-87
2024/01/14 09:01:07;;;;;;;22.70;13.93;;;;;;;-1.34;76.75;94910.06;5066863;28;20685;-87
2024/01/14 09:04:04;;;;;;;27.00;15.07;;;;;;;-1.48;77.25;94923.78;5069703;28;20212;-87
2024/01/14 09:09:23;;;;;;;27.33;14.87;;;;;;;-1.53;78.76;94973.00;5055729;28;20311;-87
2024/01/14 09:11:52;;;;;;;24.30;13.60;;;;;;;-1.09;98.76;95368.63;5071927;28;20573;-86
2024/01/14 09:14:36;;;;;;;25.63;15.27;;;;;;;-1.02;84.16;95118.91;5066539;28;20690;-88
2024/01/14 09:20:38;;;;;;;22.43;13.20;;;;;;;-1.19;78.53;94913.13;5002480;28;20209;-87
2024/01/14 09:26:26;;;;;;;23.67;13.63;;;;;;;-1.23;77.94;94894.88;5020005;28;20213;-87
2024/01/14 09:31:54;;;;;;;22.97;13.23;;;;;;;-0.85;77.68;94899.38;5064336;28;20295;-87
2024/01/14 09:34:48;;;;;;;22.07;14.20;;;;;;;-0.51;76.50;94858.69;5061861;28;20216;-87
2024/01/14 09:53:00;;;;;;;21.67;13.87;;;;;;;0.12;73.48;94741.16;4970922;28;20243;-89
2024/01/14 09:55:41;;;;;;;22.17;14.53;;;;;;;0.22;73.13;94741.94;5050028;28;20626;-88
2024/01/14 09:58:26;;;;;;;23.17;14.57;;;;;;;0.38;72.77;94733.00;5062314;28;20227;-87
2024/01/14 10:03:45;;;;;;;24.37;15.40;;;;;;;0.73;71.28;94679.22;5005768;28;20246;-88
2024/01/14 10:09:50;;;;;;;22.40;14.60;;;;;;;0.82;70.34;94613.28;4990891;28;20285;-88
2024/01/14 10:15:38;;;;;;;21.10;14.17;;;;;;;0.71;69.95;94567.91;5059820;28;20232;-88
2024/01/14 10:19:11;;;;;;;21.60;15.03;;;;;;;0.74;70.00;94560.03;5056526;28;20237;-88
2024/01/14 10:21:58;;;;;;;22.43;14.27;;;;;;;1.18;69.82;94580.41;4994863;28;20205;-88
2024/01/14 10:27:32;;;;;;;25.10;14.63;;;;;;;1.09;68.43;94480.69;5049875;28;20591;-87
2024/01/14 10:30:30;;;;;;;21.87;15.03;;;;;;;1.24;68.19;94460.69;5064984;28;20910;-87
2024/01/14 10:33:10;;;;;;;20.43;13.90;;;;;;;1.45;68.06;94460.34;5031916;28;20243;-88
2024/01/14 10:35:38;;;;;;;23.60;14.70;;;;;;;1.58;68.38;94473.44;5048461;28;20674;-85
2024/01/14 10:38:07;;;;;;;21.10;13.93;;;;;;;1.58;67.71;94433.66;5048983;28;20707;-89
2024/01/14 10:41:01;;;;;;;25.93;16.73;;;;;;;1.71;67.21;94413.75;5049339;28;20208;-88
2024/01/14 10:46:49;;;;;;;23.57;15.13;;;;;;;1.91;67.19;94401.63;4954448;28;20208;-87
2024/01/14 10:49:53;;;;;;;22.93;14.90;;;;;;;1.81;66.49;94351.94;4966119;28;20287;-88
2024/01/14 10:52:24;;;;;;;25.87;16.33;;;;;;;1.66;66.77;94351.72;4972295;28;20227;-86
2024/01/14 10:55:01;;;;;;;24.77;15.83;;;;;;;1.59;67.19;94368.50;5060202;28;20193;-85
2024/01/14 10:57:38;;;;;;;25.27;15.43;;;;;;;1.71;66.37;94321.63;5047453;28;20228;-89
2024/01/14 11:00:25;;;;;;;24.47;14.07;;;;;;;1.63;66.04;94294.50;5051160;28;20204;-87
2024/01/14 11:02:54;;;;;;;24.10;15.00;;;;;;;1.74;66.08;94301.00;5065443;28;20677;-87
2024/01/14 11:05:23;;;;;;;24.97;15.70;;;;;;;1.94;66.03;94304.06;5061853;28;20210;-87
2024/01/14 11:07:59;;;;;;;23.70;16.00;;;;;;;1.89;65.06;94253.00;5068048;28;20248;-87
2024/01/14 11:10:26;;;;;;;23.50;14.93;;;;;;;2.02;65.42;94251.59;5050813;28;20232;-87
2024/01/14 11:16:20;;;;;;;21.47;14.40;;;;;;;2.19;64.52;94206.69;5026444;28;20231;-87
2024/01/14 11:18:59;;;;;;;21.13;14.33;;;;;;;2.42;64.21;94194.94;5069378;28;20225;-88
2024/01/14 11:24:45;;;;;;;21.10;14.50;;;;;;;2.70;62.89;94113.25;5049230;28;20772;-88
2024/01/14 11:30:02;;;;;;;22.50;14.30;;;;;;;2.82;62.19;94078.13;4989781;28;20247;-87
2024/01/14 11:32:29;;;;;;;23.60;14.90;;;;;;;2.96;62.53;94082.50;5002624;28;20249;-88
2024/01/14 11:34:59;;;;;;;20.07;14.60;;;;;;;2.83;61.98;94027.13;5036660;28;20256;-88
2024/01/14 11:43:39;;;;;;;20.87;13.93;;;;;;;3.10;61.61;94008.03;5047291;28;20229;-87
2024/01/14 11:46:08;;;;;;;20.97;14.13;;;;;;;3.07;61.04;93967.72;5051416;28;20310;-87
2024/01/14 11:48:34;;;;;;;20.23;13.53;;;;;;;3.21;61.12;93972.06;5052316;28;20213;-87
2024/01/14 11:51:16;;;;;;;23.07;14.37;;;;;;;3.28;60.83;93944.97;5065281;28;20205;-87
2024/01/14 11:53:45;;;;;;;22.80;14.43;;;;;;;3.31;60.36;93921.72;5072375;28;20205;-87
2024/01/14 11:56:31;;;;;;;20.87;14.23;;;;;;;3.45;60.18;93910.03;5071789;28;20193;-87
2024/01/14 11:59:03;;;;;;;21.80;13.83;;;;;;;3.62;59.91;93911.44;5071828;28;20220;-87
2024/01/14 12:01:32;;;;;;;17.77;13.30;;;;;;;3.69;59.25;93860.59;5071710;28;20295;-87
2024/01/14 12:04:25;;;;;;;19.43;13.57;;;;;;;3.69;59.29;93850.44;5071681;28;20221;-87
2024/01/14 12:07:20;;;;;;;20.90;13.90;;;;;;;3.55;59.37;93839.31;5068865;28;20205;-87
2024/01/14 12:16:14;;;;;;;20.60;13.57;;;;;;;3.81;59.30;93823.59;5001289;28;20214;-88
2024/01/14 12:18:45;;;;;;;20.07;13.90;;;;;;;3.96;59.07;93828.63;5007789;28;20258;-87
2024/01/14 12:21:19;;;;;;;19.60;13.20;;;;;;;4.10;58.26;93779.41;5016862;28;20592;-88
2024/01/14 12:23:46;;;;;;;19.23;13.33;;;;;;;4.00;58.81;93796.75;5068820;28;20220;-87
2024/01/14 12:26:17;;;;;;;17.43;12.50;;;;;;;3.78;58.57;93750.91;5060801;28;20194;-87
2024/01/14 12:28:44;;;;;;;22.13;14.20;;;;;;;3.75;59.02;93779.25;5063761;28;20597;-87
2024/01/14 12:31:25;;;;;;;19.97;13.73;;;;;;;3.66;59.07;93772.69;5071429;28;20267;-88
2024/01/14 12:33:58;;;;;;;17.50;13.00;;;;;;;3.66;58.83;93736.28;5071215;28;20203;-88
2024/01/14 12:36:32;;;;;;;16.97;12.23;;;;;;;3.63;58.47;93714.56;5071396;28;20196;-88
2024/01/14 12:39:06;;;;;;;18.43;11.87;;;;;;;3.94;58.35;93744.00;5062121;28;20220;-87
2024/01/14 12:41:35;;;;;;;17.63;12.43;;;;;;;4.10;57.73;93696.19;5067819;28;20200;-87
2024/01/14 12:44:02;;;;;;;21.90;13.50;;;;;;;4.32;58.01;93696.94;5070961;28;20220;-87
2024/01/14 12:46:36;;;;;;;17.17;12.43;;;;;;;4.48;57.57;93670.41;5071719;28;20205;-87
2024/01/14 12:49:05;;;;;;;18.87;12.47;;;;;;;4.48;56.82;93632.19;5071708;28;20303;-83
2024/01/14 12:51:31;;;;;;;17.70;13.03;;;;;;;4.62;57.59;93669.50;5056979;28;20202;-83
2024/01/14 12:54:00;;;;;;;16.80;12.47;;;;;;;4.89;56.95;93642.41;5054987;28;20213;-86
2024/01/14 12:56:28;;;;;;;16.97;12.13;;;;;;;4.93;55.40;93543.38;5069589;28;20580;-85
2024/01/14 12:58:55;;;;;;;15.77;11.40;;;;;;;4.97;55.02;93501.22;5070035;28;20255;-86
2024/01/14 13:01:31;;;;;;;16.20;11.40;;;;;;;4.97;55.01;93476.50;5068200;28;20193;-85
2024/01/14 13:03:58;;;;;;;16.17;12.13;;;;;;;5.08;55.42;93523.59;5053140;28;20648;-86
2024/01/14 13:06:25;;;;;;;16.83;11.87;;;;;;;5.16;55.35;93518.31;5061446;28;20204;-86
2024/01/14 13:08:51;;;;;;;16.73;12.30;;;;;;;5.19;55.21;93513.63;5070561;28;20217;-86
2024/01/14 13:11:18;;;;;;;15.70;11.70;;;;;;;5.28;55.35;93514.22;5066891;28;20284;-86
2024/01/14 13:14:02;;;;;;;17.70;12.33;;;;;;;5.23;54.86;93470.63;5070237;28;20205;-86
2024/01/14 13:16:30;;;;;;;16.33;12.00;;;;;;;5.24;54.95;93468.88;5070270;28;20220;-86
2024/01/14 13:19:10;;;;;;;16.70;12.17;;;;;;;5.21;55.74;93549.91;5070330;28;20655;-85
2024/01/14 13:21:37;;;;;;;14.13;11.27;;;;;;;5.20;55.04;93479.47;5071052;28;20231;-86
2024/01/14 13:24:04;;;;;;;15.60;11.30;;;;;;;5.18;54.75;93453.41;5070095;28;20213;-86
2024/01/14 13:26:30;;;;;;;14.87;11.33;;;;;;;5.10;55.08;93473.19;5068964;28;20208;-85
2024/01/14 13:28:57;;;;;;;16.80;12.10;;;;;;;5.08;54.65;93442.78;5069389;28;20741;-86
2024/01/14 13:31:38;;;;;;;;;;;;;;;;;;;;;
2024/01/14 13:34:06;;;;;;;18.60;13.27;;;;;;;5.22;54.81;93461.41;5068970;28;20572;-86
2024/01/14 13:36:54;;;;;;;20.87;14.70;;;;;;;5.13;54.49;93437.09;5070974;28;20232;-85
2024/01/14 13:39:20;;;;;;;18.03;12.37;;;;;;;5.21;54.99;93465.72;5069098;28;20228;-86
2024/01/14 13:41:53;;;;;;;14.40;11.43;;;;;;;5.21;54.85;93440.22;5070162;28;20201;-86
2024/01/14 13:44:20;;;;;;;16.73;11.83;;;;;;;5.14;54.54;93426.69;5067987;28;20225;-86
2024/01/14 13:46:46;;;;;;;16.23;12.03;;;;;;;5.04;54.80;93425.50;5049779;28;20206;-86
2024/01/14 13:49:24;;;;;;;15.93;11.50;;;;;;;5.03;54.88;93429.81;5049463;28;20228;-86